sensor_id;sensor_type;location;lat;lon;timestamp;P1;durP1;ratioP1;P2;durP2;ratioP2
21663;SDS011;10993;52.510;13.456;2023-01-04T00:00:54;16.97;;;8.80;;
21663;SDS011;10993;52.510;13.456;2023-01-04T00:06:00;12.97;;;6.33;;
21663;SDS011;10993;52.510;13.456;2023-01-04T00:11:04;11.37;;;5.53;;
21663;SDS011;10993;52.510;13.456;2023-01-04T00:16:07;9.97;;;4.63;;
21663;SDS011;10993;52.510;13.456;2023-01-04T00:21:12;10.00;;;4.97;;
21663;SDS011;10993;52.510;13.456;2023-01-04T00:26:14;10.17;;;5.27;;
21663;SDS011;10993;52.510;13.456;2023-01-04T00:31:17;7.77;;;4.17;;
21663;SDS011;10993;52.510;13.456;2023-01-04T00:36:17;9.43;;;4.30;;
21663;SDS011;10993;52.510;13.456;2023-01-04T00:41:18;6.67;;;3.93;;
21663;SDS011;10993;52.510;13.456;2023-01-04T00:46:19;8.33;;;4.50;;
21663;SDS011;10993;52.510;13.456;2023-01-04T00:51:19;6.60;;;4.27;;
21663;SDS011;10993;52.510;13.456;2023-01-04T00:56:20;6.37;;;3.47;;
21663;SDS011;10993;52.510;13.456;2023-01-04T01:01:21;6.83;;;3.57;;
21663;SDS011;10993;52.510;13.456;2023-01-04T01:06:23;6.70;;;3.70;;
21663;SDS011;10993;52.510;13.456;2023-01-04T01:11:24;5.80;;;3.23;;
21663;SDS011;10993;52.510;13.456;2023-01-04T01:16:26;6.87;;;3.50;;
21663;SDS011;10993;52.510;13.456;2023-01-04T01:21:26;8.10;;;4.17;;
21663;SDS011;10993;52.510;13.456;2023-01-04T01:26:28;6.83;;;3.63;;
21663;SDS011;10993;52.510;13.456;2023-01-04T01:31:29;8.03;;;3.43;;
21663;SDS011;10993;52.510;13.456;2023-01-04T01:36:30;7.40;;;3.47;;
21663;SDS011;10993;52.510;13.456;2023-01-04T01:41:31;17.60;;;6.50;;
21663;SDS011;10993;52.510;13.456;2023-01-04T01:46:35;7.20;;;3.40;;
21663;SDS011;10993;52.510;13.456;2023-01-04T01:51:39;6.17;;;3.03;;
21663;SDS011;10993;52.510;13.456;2023-01-04T01:56:41;7.97;;;3.77;;
21663;SDS011;10993;52.510;13.456;2023-01-04T02:01:46;5.63;;;2.97;;
21663;SDS011;10993;52.510;13.456;2023-01-04T02:06:49;6.70;;;3.30;;
21663;SDS011;10993;52.510;13.456;2023-01-04T02:11:53;6.57;;;2.90;;
21663;SDS011;10993;52.510;13.456;2023-01-04T02:16:58;6.60;;;3.23;;
21663;SDS011;10993;52.510;13.456;2023-01-04T02:27:52;7.03;;;2.80;;
21663;SDS011;10993;52.510;13.456;2023-01-04T02:33:00;6.33;;;3.27;;
21663;SDS011;10993;52.510;13.456;2023-01-04T02:38:13;4.43;;;2.47;;
21663;SDS011;10993;52.510;13.456;2023-01-04T02:43:22;5.97;;;3.07;;
21663;SDS011;10993;52.510;13.456;2023-01-04T02:48:49;7.90;;;2.30;;
21663;SDS011;10993;52.510;13.456;2023-01-04T02:54:09;3.93;;;2.33;;
21663;SDS011;10993;52.510;13.456;2023-01-04T02:59:17;4.77;;;2.60;;
21663;SDS011;10993;52.510;13.456;2023-01-04T03:04:40;5.50;;;2.90;;
21663;SDS011;10993;52.510;13.456;2023-01-04T03:10:11;5.80;;;2.77;;
21663;SDS011;10993;52.510;13.456;2023-01-04T03:15:18;5.13;;;2.50;;
21663;SDS011;10993;52.510;13.456;2023-01-04T03:20:23;4.43;;;2.70;;
21663;SDS011;10993;52.510;13.456;2023-01-04T03:25:28;5.77;;;3.07;;
21663;SDS011;10993;52.510;13.456;2023-01-04T03:30:52;5.93;;;2.97;;
21663;SDS011;10993;52.510;13.456;2023-01-04T03:36:19;5.47;;;2.80;;
21663;SDS011;10993;52.510;13.456;2023-01-04T03:41:28;6.77;;;3.53;;
21663;SDS011;10993;52.510;13.456;2023-01-04T03:46:52;6.33;;;2.90;;
21663;SDS011;10993;52.510;13.456;2023-01-04T03:52:22;5.27;;;3.00;;
21663;SDS011;10993;52.510;13.456;2023-01-04T03:57:25;5.17;;;2.80;;
21663;SDS011;10993;52.510;13.456;2023-01-04T04:02:27;4.70;;;2.50;;
21663;SDS011;10993;52.510;13.456;2023-01-04T04:07:30;5.33;;;2.70;;
21663;SDS011;10993;52.510;13.456;2023-01-04T04:12:49;5.60;;;2.77;;
21663;SDS011;10993;52.510;13.456;2023-01-04T04:17:49;9.43;;;3.23;;
21663;SDS011;10993;52.510;13.456;2023-01-04T04:22:51;4.97;;;2.87;;
21663;SDS011;10993;52.510;13.456;2023-01-04T04:27:52;6.77;;;2.70;;
21663;SDS011;10993;52.510;13.456;2023-01-04T04:32:52;5.33;;;3.10;;
21663;SDS011;10993;52.510;13.456;2023-01-04T04:37:54;4.77;;;2.70;;
21663;SDS011;10993;52.510;13.456;2023-01-04T04:42:54;4.93;;;2.83;;
21663;SDS011;10993;52.510;13.456;2023-01-04T04:47:55;5.87;;;2.90;;
21663;SDS011;10993;52.510;13.456;2023-01-04T04:52:56;4.93;;;2.53;;
21663;SDS011;10993;52.510;13.456;2023-01-04T04:57:57;4.63;;;2.60;;
21663;SDS011;10993;52.510;13.456;2023-01-04T05:02:57;7.17;;;3.00;;
21663;SDS011;10993;52.510;13.456;2023-01-04T05:07:59;6.87;;;2.97;;
21663;SDS011;10993;52.510;13.456;2023-01-04T05:12:59;5.37;;;2.50;;
21663;SDS011;10993;52.510;13.456;2023-01-04T05:18:00;6.50;;;2.87;;
21663;SDS011;10993;52.510;13.456;2023-01-04T05:23:02;4.60;;;2.53;;
21663;SDS011;10993;52.510;13.456;2023-01-04T05:28:03;5.03;;;2.53;;
21663;SDS011;10993;52.510;13.456;2023-01-04T05:33:04;6.53;;;2.37;;
21663;SDS011;10993;52.510;13.456;2023-01-04T05:38:06;5.27;;;2.60;;
21663;SDS011;10993;52.510;13.456;2023-01-04T05:43:06;3.93;;;1.97;;
21663;SDS011;10993;52.510;13.456;2023-01-04T05:48:07;4.50;;;2.70;;
21663;SDS011;10993;52.510;13.456;2023-01-04T05:53:09;4.73;;;2.63;;
21663;SDS011;10993;52.510;13.456;2023-01-04T05:58:09;4.53;;;2.27;;
21663;SDS011;10993;52.510;13.456;2023-01-04T06:03:09;5.00;;;2.57;;
21663;SDS011;10993;52.510;13.456;2023-01-04T06:08:11;5.20;;;2.10;;
21663;SDS011;10993;52.510;13.456;2023-01-04T06:13:11;4.17;;;2.13;;
21663;SDS011;10993;52.510;13.456;2023-01-04T06:18:12;3.90;;;2.20;;
21663;SDS011;10993;52.510;13.456;2023-01-04T06:23:13;6.40;;;2.00;;
21663;SDS011;10993;52.510;13.456;2023-01-04T06:28:14;2.63;;;1.70;;
21663;SDS011;10993;52.510;13.456;2023-01-04T06:33:14;4.30;;;1.90;;
21663;SDS011;10993;52.510;13.456;2023-01-04T06:38:16;5.67;;;1.80;;
21663;SDS011;10993;52.510;13.456;2023-01-04T06:43:16;5.03;;;2.30;;
21663;SDS011;10993;52.510;13.456;2023-01-04T06:48:16;5.85;;;2.58;;
21663;SDS011;10993;52.510;13.456;2023-01-04T06:53:18;3.05;;;1.75;;
21663;SDS011;10993;52.510;13.456;2023-01-04T06:58:18;6.38;;;1.90;;
21663;SDS011;10993;52.510;13.456;2023-01-04T07:03:19;3.97;;;1.60;;
21663;SDS011;10993;52.510;13.456;2023-01-04T07:08:21;4.40;;;1.90;;
21663;SDS011;10993;52.510;13.456;2023-01-04T07:13:21;4.15;;;2.13;;
21663;SDS011;10993;52.510;13.456;2023-01-04T07:18:21;2.72;;;1.52;;
21663;SDS011;10993;52.510;13.456;2023-01-04T07:23:23;5.68;;;1.65;;
21663;SDS011;10993;52.510;13.456;2023-01-04T07:28:23;2.70;;;1.40;;
21663;SDS011;10993;52.510;13.456;2023-01-04T07:33:42;2.80;;;1.30;;
21663;SDS011;10993;52.510;13.456;2023-01-04T07:38:44;3.80;;;1.48;;
21663;SDS011;10993;52.510;13.456;2023-01-04T07:43:45;5.38;;;1.90;;
21663;SDS011;10993;52.510;13.456;2023-01-04T07:48:45;5.03;;;1.50;;
21663;SDS011;10993;52.510;13.456;2023-01-04T07:53:47;3.92;;;1.63;;
21663;SDS011;10993;52.510;13.456;2023-01-04T07:58:47;3.42;;;1.20;;
21663;SDS011;10993;52.510;13.456;2023-01-04T08:03:48;3.72;;;1.40;;
21663;SDS011;10993;52.510;13.456;2023-01-04T08:08:49;4.80;;;1.73;;
21663;SDS011;10993;52.510;13.456;2023-01-04T08:13:50;3.60;;;1.48;;
21663;SDS011;10993;52.510;13.456;2023-01-04T08:18:51;3.03;;;1.50;;
21663;SDS011;10993;52.510;13.456;2023-01-04T08:23:54;4.00;;;1.43;;
21663;SDS011;10993;52.510;13.456;2023-01-04T08:28:54;6.23;;;2.87;;
21663;SDS011;10993;52.510;13.456;2023-01-04T08:33:55;3.42;;;1.30;;
21663;SDS011;10993;52.510;13.456;2023-01-04T08:38:58;3.53;;;1.42;;
21663;SDS011;10993;52.510;13.456;2023-01-04T08:44:00;4.97;;;2.08;;
21663;SDS011;10993;52.510;13.456;2023-01-04T08:49:01;3.15;;;1.38;;
21663;SDS011;10993;52.510;13.456;2023-01-04T08:54:03;3.45;;;1.73;;
21663;SDS011;10993;52.510;13.456;2023-01-04T08:59:04;8.48;;;3.28;;
21663;SDS011;10993;52.510;13.456;2023-01-04T09:04:05;4.70;;;1.80;;
21663;SDS011;10993;52.510;13.456;2023-01-04T09:09:07;5.88;;;1.95;;
21663;SDS011;10993;52.510;13.456;2023-01-04T09:14:08;2.53;;;1.20;;
21663;SDS011;10993;52.510;13.456;2023-01-04T09:19:09;4.35;;;1.73;;
21663;SDS011;10993;52.510;13.456;2023-01-04T09:24:11;3.92;;;1.67;;
21663;SDS011;10993;52.510;13.456;2023-01-04T09:29:13;3.03;;;1.50;;
21663;SDS011;10993;52.510;13.456;2023-01-04T09:34:13;3.67;;;1.67;;
21663;SDS011;10993;52.510;13.456;2023-01-04T09:39:15;6.88;;;2.42;;
21663;SDS011;10993;52.510;13.456;2023-01-04T09:44:16;4.32;;;1.52;;
21663;SDS011;10993;52.510;13.456;2023-01-04T09:49:28;3.70;;;1.75;;
21663;SDS011;10993;52.510;13.456;2023-01-04T09:54:36;4.88;;;1.55;;
21663;SDS011;10993;52.510;13.456;2023-01-04T09:59:44;7.75;;;3.15;;
21663;SDS011;10993;52.510;13.456;2023-01-04T10:04:47;5.97;;;2.13;;
21663;SDS011;10993;52.510;13.456;2023-01-04T10:09:50;6.40;;;2.25;;
21663;SDS011;10993;52.510;13.456;2023-01-04T10:14:56;7.70;;;3.17;;
21663;SDS011;10993;52.510;13.456;2023-01-04T10:25:50;4.40;;;2.03;;
21663;SDS011;10993;52.510;13.456;2023-01-04T10:30:58;4.03;;;2.13;;
21663;SDS011;10993;52.510;13.456;2023-01-04T10:36:09;5.10;;;2.60;;
21663;SDS011;10993;52.510;13.456;2023-01-04T10:41:18;4.90;;;2.13;;
21663;SDS011;10993;52.510;13.456;2023-01-04T10:46:24;4.82;;;1.85;;
21663;SDS011;10993;52.510;13.456;2023-01-04T10:51:29;4.10;;;2.03;;
21663;SDS011;10993;52.510;13.456;2023-01-04T10:56:36;5.63;;;1.92;;
21663;SDS011;10993;52.510;13.456;2023-01-04T11:01:43;3.83;;;1.90;;
21663;SDS011;10993;52.510;13.456;2023-01-04T11:06:51;6.82;;;2.60;;
21663;SDS011;10993;52.510;13.456;2023-01-04T11:11:57;5.13;;;2.08;;
21663;SDS011;10993;52.510;13.456;2023-01-04T11:16:59;6.95;;;2.88;;
21663;SDS011;10993;52.510;13.456;2023-01-04T11:22:05;5.85;;;2.45;;
21663;SDS011;10993;52.510;13.456;2023-01-04T11:27:13;5.40;;;2.10;;
21663;SDS011;10993;52.510;13.456;2023-01-04T11:32:17;4.60;;;2.03;;
21663;SDS011;10993;52.510;13.456;2023-01-04T11:37:30;3.83;;;1.67;;
21663;SDS011;10993;52.510;13.456;2023-01-04T11:42:34;5.05;;;2.25;;
21663;SDS011;10993;52.510;13.456;2023-01-04T11:47:34;4.25;;;2.10;;
21663;SDS011;10993;52.510;13.456;2023-01-04T11:52:47;7.93;;;2.25;;
21663;SDS011;10993;52.510;13.456;2023-01-04T11:57:48;4.63;;;1.90;;
21663;SDS011;10993;52.510;13.456;2023-01-04T12:03:09;4.88;;;1.70;;
21663;SDS011;10993;52.510;13.456;2023-01-04T12:08:25;3.60;;;1.75;;
21663;SDS011;10993;52.510;13.456;2023-01-04T12:13:29;4.15;;;1.70;;
21663;SDS011;10993;52.510;13.456;2023-01-04T12:18:33;4.50;;;2.25;;
21663;SDS011;10993;52.510;13.456;2023-01-04T12:23:37;2.15;;;1.33;;
21663;SDS011;10993;52.510;13.456;2023-01-04T12:28:39;3.03;;;1.20;;
21663;SDS011;10993;52.510;13.456;2023-01-04T12:33:42;5.50;;;2.30;;
21663;SDS011;10993;52.510;13.456;2023-01-04T12:44:54;6.53;;;2.10;;
21663;SDS011;10993;52.510;13.456;2023-01-04T12:49:50;8.70;;;3.65;;
21663;SDS011;10993;52.510;13.456;2023-01-04T12:54:52;3.13;;;1.42;;
21663;SDS011;10993;52.510;13.456;2023-01-04T12:59:56;6.10;;;2.50;;
21663;SDS011;10993;52.510;13.456;2023-01-04T13:04:58;2.72;;;1.63;;
21663;SDS011;10993;52.510;13.456;2023-01-04T13:10:00;3.65;;;1.40;;
21663;SDS011;10993;52.510;13.456;2023-01-04T13:15:20;3.05;;;1.58;;
21663;SDS011;10993;52.510;13.456;2023-01-04T13:20:25;5.88;;;2.00;;
21663;SDS011;10993;52.510;13.456;2023-01-04T13:25:29;7.43;;;3.40;;
21663;SDS011;10993;52.510;13.456;2023-01-04T13:30:32;3.80;;;1.98;;
21663;SDS011;10993;52.510;13.456;2023-01-04T13:35:34;3.47;;;1.90;;
21663;SDS011;10993;52.510;13.456;2023-01-04T13:40:36;4.80;;;1.92;;
21663;SDS011;10993;52.510;13.456;2023-01-04T13:45:57;7.32;;;2.58;;
21663;SDS011;10993;52.510;13.456;2023-01-04T13:51:10;4.07;;;2.45;;
21663;SDS011;10993;52.510;13.456;2023-01-04T13:56:16;5.43;;;1.92;;
21663;SDS011;10993;52.510;13.456;2023-01-04T14:01:21;3.45;;;2.03;;
21663;SDS011;10993;52.510;13.456;2023-01-04T14:06:25;5.22;;;2.10;;
21663;SDS011;10993;52.510;13.456;2023-01-04T14:11:28;3.55;;;1.80;;
21663;SDS011;10993;52.510;13.456;2023-01-04T14:16:52;3.30;;;1.75;;
21663;SDS011;10993;52.510;13.456;2023-01-04T14:27:50;3.97;;;1.58;;
21663;SDS011;10993;52.510;13.456;2023-01-04T14:32:52;6.22;;;2.75;;
21663;SDS011;10993;52.510;13.456;2023-01-04T14:37:54;5.25;;;1.88;;
21663;SDS011;10993;52.510;13.456;2023-01-04T14:43:01;4.57;;;2.33;;
21663;SDS011;10993;52.510;13.456;2023-01-04T14:48:03;2.97;;;1.70;;
21663;SDS011;10993;52.510;13.456;2023-01-04T14:53:03;4.75;;;2.17;;
21663;SDS011;10993;52.510;13.456;2023-01-04T14:58:04;4.68;;;2.25;;
21663;SDS011;10993;52.510;13.456;2023-01-04T15:03:05;3.60;;;1.77;;
21663;SDS011;10993;52.510;13.456;2023-01-04T15:08:07;6.00;;;2.03;;
21663;SDS011;10993;52.510;13.456;2023-01-04T15:13:09;4.03;;;2.00;;
21663;SDS011;10993;52.510;13.456;2023-01-04T15:18:10;5.65;;;2.78;;
21663;SDS011;10993;52.510;13.456;2023-01-04T15:23:11;6.90;;;2.42;;
21663;SDS011;10993;52.510;13.456;2023-01-04T15:28:12;3.53;;;1.33;;
21663;SDS011;10993;52.510;13.456;2023-01-04T15:33:14;3.05;;;1.77;;
21663;SDS011;10993;52.510;13.456;2023-01-04T15:38:15;3.47;;;1.67;;
21663;SDS011;10993;52.510;13.456;2023-01-04T15:43:15;2.20;;;1.00;;
21663;SDS011;10993;52.510;13.456;2023-01-04T15:48:17;5.13;;;2.33;;
21663;SDS011;10993;52.510;13.456;2023-01-04T15:53:17;3.28;;;1.10;;
21663;SDS011;10993;52.510;13.456;2023-01-04T15:58:18;2.55;;;1.50;;
21663;SDS011;10993;52.510;13.456;2023-01-04T16:03:19;3.67;;;1.50;;
21663;SDS011;10993;52.510;13.456;2023-01-04T16:08:20;6.47;;;1.85;;
21663;SDS011;10993;52.510;13.456;2023-01-04T16:13:20;3.50;;;1.45;;
21663;SDS011;10993;52.510;13.456;2023-01-04T16:18:23;3.85;;;1.75;;
21663;SDS011;10993;52.510;13.456;2023-01-04T16:23:23;4.72;;;2.38;;
21663;SDS011;10993;52.510;13.456;2023-01-04T16:28:23;3.50;;;1.52;;
21663;SDS011;10993;52.510;13.456;2023-01-04T16:33:25;2.90;;;1.30;;
21663;SDS011;10993;52.510;13.456;2023-01-04T16:38:26;3.20;;;1.60;;
21663;SDS011;10993;52.510;13.456;2023-01-04T16:43:27;3.63;;;2.00;;
21663;SDS011;10993;52.510;13.456;2023-01-04T16:48:30;5.72;;;2.45;;
21663;SDS011;10993;52.510;13.456;2023-01-04T16:53:30;3.03;;;1.40;;
21663;SDS011;10993;52.510;13.456;2023-01-04T16:58:30;3.42;;;1.10;;
21663;SDS011;10993;52.510;13.456;2023-01-04T17:03:32;3.53;;;1.60;;
21663;SDS011;10993;52.510;13.456;2023-01-04T17:08:32;2.65;;;1.38;;
21663;SDS011;10993;52.510;13.456;2023-01-04T17:13:33;1.63;;;0.93;;
21663;SDS011;10993;52.510;13.456;2023-01-04T17:18:35;3.72;;;1.40;;
21663;SDS011;10993;52.510;13.456;2023-01-04T17:23:36;2.20;;;1.00;;
21663;SDS011;10993;52.510;13.456;2023-01-04T17:28:39;2.83;;;1.30;;
21663;SDS011;10993;52.510;13.456;2023-01-04T17:33:40;1.92;;;1.00;;
21663;SDS011;10993;52.510;13.456;2023-01-04T17:38:41;1.30;;;0.80;;
21663;SDS011;10993;52.510;13.456;2023-01-04T17:43:42;2.38;;;0.93;;
21663;SDS011;10993;52.510;13.456;2023-01-04T17:48:45;3.95;;;0.90;;
21663;SDS011;10993;52.510;13.456;2023-01-04T17:53:46;1.23;;;0.75;;
21663;SDS011;10993;52.510;13.456;2023-01-04T17:58:48;1.58;;;0.80;;
21663;SDS011;10993;52.510;13.456;2023-01-04T18:03:50;1.90;;;0.90;;
21663;SDS011;10993;52.510;13.456;2023-01-04T18:08:52;2.42;;;0.93;;
21663;SDS011;10993;52.510;13.456;2023-01-04T18:13:53;2.25;;;0.90;;
21663;SDS011;10993;52.510;13.456;2023-01-04T18:18:55;1.75;;;0.70;;
21663;SDS011;10993;52.510;13.456;2023-01-04T18:23:57;1.48;;;0.80;;
21663;SDS011;10993;52.510;13.456;2023-01-04T18:28:59;2.92;;;1.30;;
21663;SDS011;10993;52.510;13.456;2023-01-04T18:34:01;1.67;;;0.65;;
21663;SDS011;10993;52.510;13.456;2023-01-04T18:39:02;3.13;;;1.23;;
21663;SDS011;10993;52.510;13.456;2023-01-04T18:44:03;2.10;;;1.10;;
21663;SDS011;10993;52.510;13.456;2023-01-04T18:49:05;1.70;;;1.00;;
21663;SDS011;10993;52.510;13.456;2023-01-04T18:54:05;2.25;;;1.00;;
21663;SDS011;10993;52.510;13.456;2023-01-04T18:59:06;7.65;;;2.85;;
21663;SDS011;10993;52.510;13.456;2023-01-04T19:04:07;3.42;;;1.20;;
21663;SDS011;10993;52.510;13.456;2023-01-04T19:09:10;2.83;;;1.20;;
21663;SDS011;10993;52.510;13.456;2023-01-04T19:14:10;2.65;;;1.20;;
21663;SDS011;10993;52.510;13.456;2023-01-04T19:19:12;2.50;;;1.08;;
21663;SDS011;10993;52.510;13.456;2023-01-04T19:24:12;2.42;;;1.20;;
21663;SDS011;10993;52.510;13.456;2023-01-04T19:29:13;2.78;;;0.90;;
21663;SDS011;10993;52.510;13.456;2023-01-04T19:34:14;2.45;;;1.08;;
21663;SDS011;10993;52.510;13.456;2023-01-04T19:39:15;1.58;;;0.80;;
21663;SDS011;10993;52.510;13.456;2023-01-04T19:44:15;1.95;;;0.90;;
21663;SDS011;10993;52.510;13.456;2023-01-04T19:49:17;2.95;;;1.10;;
21663;SDS011;10993;52.510;13.456;2023-01-04T19:54:18;2.35;;;1.05;;
21663;SDS011;10993;52.510;13.456;2023-01-04T19:59:18;2.05;;;0.93;;
21663;SDS011;10993;52.510;13.456;2023-01-04T20:04:20;2.05;;;1.02;;
21663;SDS011;10993;52.510;13.456;2023-01-04T20:09:20;4.47;;;2.53;;
21663;SDS011;10993;52.510;13.456;2023-01-04T20:14:24;3.78;;;1.65;;
21663;SDS011;10993;52.510;13.456;2023-01-04T20:19:26;3.80;;;1.33;;
21663;SDS011;10993;52.510;13.456;2023-01-04T20:24:27;1.27;;;0.73;;
21663;SDS011;10993;52.510;13.456;2023-01-04T20:29:27;2.10;;;1.00;;
21663;SDS011;10993;52.510;13.456;2023-01-04T20:34:29;1.70;;;0.70;;
21663;SDS011;10993;52.510;13.456;2023-01-04T20:39:30;3.25;;;0.90;;
21663;SDS011;10993;52.510;13.456;2023-01-04T20:44:30;1.85;;;1.00;;
21663;SDS011;10993;52.510;13.456;2023-01-04T20:49:32;1.73;;;0.88;;
21663;SDS011;10993;52.510;13.456;2023-01-04T20:54:32;4.40;;;1.27;;
21663;SDS011;10993;52.510;13.456;2023-01-04T20:59:32;4.15;;;1.77;;
21663;SDS011;10993;52.510;13.456;2023-01-04T21:04:34;1.80;;;0.90;;
21663;SDS011;10993;52.510;13.456;2023-01-04T21:09:35;5.80;;;2.60;;
21663;SDS011;10993;52.510;13.456;2023-01-04T21:14:35;3.22;;;1.13;;
21663;SDS011;10993;52.510;13.456;2023-01-04T21:19:38;3.58;;;1.00;;
21663;SDS011;10993;52.510;13.456;2023-01-04T21:24:38;4.63;;;1.27;;
21663;SDS011;10993;52.510;13.456;2023-01-04T21:29:39;3.58;;;1.55;;
21663;SDS011;10993;52.510;13.456;2023-01-04T21:34:40;3.78;;;0.77;;
21663;SDS011;10993;52.510;13.456;2023-01-04T21:39:41;3.55;;;1.40;;
21663;SDS011;10993;52.510;13.456;2023-01-04T21:44:41;3.63;;;1.00;;
21663;SDS011;10993;52.510;13.456;2023-01-04T21:49:43;2.22;;;0.88;;
21663;SDS011;10993;52.510;13.456;2023-01-04T21:54:44;2.22;;;0.85;;
21663;SDS011;10993;52.510;13.456;2023-01-04T21:59:44;4.20;;;1.00;;
21663;SDS011;10993;52.510;13.456;2023-01-04T22:04:46;3.60;;;1.48;;
21663;SDS011;10993;52.510;13.456;2023-01-04T22:09:46;3.00;;;1.50;;
21663;SDS011;10993;52.510;13.456;2023-01-04T22:14:47;3.97;;;1.27;;
21663;SDS011;10993;52.510;13.456;2023-01-04T22:19:48;3.20;;;1.17;;
21663;SDS011;10993;52.510;13.456;2023-01-04T22:24:49;6.53;;;1.35;;
21663;SDS011;10993;52.510;13.456;2023-01-04T22:29:50;2.80;;;1.10;;
21663;SDS011;10993;52.510;13.456;2023-01-04T22:34:52;5.40;;;2.08;;
21663;SDS011;10993;52.510;13.456;2023-01-04T22:39:52;4.45;;;1.67;;
21663;SDS011;10993;52.510;13.456;2023-01-04T22:44:52;4.47;;;1.58;;
21663;SDS011;10993;52.510;13.456;2023-01-04T22:49:54;4.07;;;1.52;;
21663;SDS011;10993;52.510;13.456;2023-01-04T22:54:54;5.10;;;1.40;;
21663;SDS011;10993;52.510;13.456;2023-01-04T22:59:55;4.85;;;1.33;;
21663;SDS011;10993;52.510;13.456;2023-01-04T23:04:56;2.90;;;1.02;;
21663;SDS011;10993;52.510;13.456;2023-01-04T23:09:57;5.03;;;1.40;;
21663;SDS011;10993;52.510;13.456;2023-01-04T23:14:57;3.72;;;0.93;;
21663;SDS011;10993;52.510;13.456;2023-01-04T23:20:00;2.60;;;1.00;;
21663;SDS011;10993;52.510;13.456;2023-01-04T23:25:00;2.78;;;1.10;;
21663;SDS011;10993;52.510;13.456;2023-01-04T23:30:01;6.25;;;1.67;;
21663;SDS011;10993;52.510;13.456;2023-01-04T23:35:03;4.80;;;1.27;;
21663;SDS011;10993;52.510;13.456;2023-01-04T23:40:04;4.20;;;1.40;;
21663;SDS011;10993;52.510;13.456;2023-01-04T23:45:05;3.45;;;1.05;;
21663;SDS011;10993;52.510;13.456;2023-01-04T23:50:08;6.80;;;1.20;;
21663;SDS011;10993;52.510;13.456;2023-01-04T23:55:08;5.72;;;1.35;;
